createdAt,value
2023-05-21T00:00:42.084Z,15.97
2023-05-21T00:03:56.969Z,14.53
2023-05-21T00:06:38.127Z,15.17
2023-05-21T00:09:26.072Z,16.53
2023-05-21T00:12:24.594Z,15.27
2023-05-21T00:15:03.544Z,15.40
2023-05-21T00:17:44.368Z,17.40
2023-05-21T00:20:18.980Z,15.37
2023-05-21T00:23:09.379Z,16.53
2023-05-21T00:25:39.597Z,16.30
2023-05-21T00:28:35.777Z,16.23
2023-05-21T00:31:22.160Z,16.57
2023-05-21T00:34:15.328Z,16.83
2023-05-21T00:36:55.806Z,15.47
2023-05-21T00:39:40.306Z,15.30
2023-05-21T00:42:18.451Z,14.90
2023-05-21T00:45:05.301Z,16.37
2023-05-21T00:47:36.578Z,14.83
2023-05-21T00:50:24.087Z,16.50
2023-05-21T00:53:19.644Z,15.63
2023-05-21T00:56:20.220Z,15.37
2023-05-21T00:59:09.414Z,19.43
2023-05-21T01:01:46.291Z,16.10
2023-05-21T01:04:38.609Z,16.43
2023-05-21T01:07:21.917Z,14.67
2023-05-21T01:10:13.546Z,14.57
2023-05-21T01:13:07.486Z,15.33
2023-05-21T01:15:52.614Z,14.23
2023-05-21T01:18:33.403Z,15.33
2023-05-21T01:21:09.245Z,17.23
2023-05-21T01:23:46.048Z,15.57
2023-05-21T01:26:32.478Z,15.83
2023-05-21T01:29:06.196Z,15.07
2023-05-21T01:31:55.882Z,14.57
2023-05-21T01:34:36.877Z,14.87
2023-05-21T01:37:28.892Z,13.20
2023-05-21T01:40:44.366Z,14.73
2023-05-21T01:43:27.258Z,14.23
2023-05-21T01:46:15.907Z,15.33
2023-05-21T01:48:58.424Z,15.30
2023-05-21T01:51:47.349Z,14.93
2023-05-21T01:54:27.506Z,15.43
2023-05-21T01:57:46.592Z,14.57
2023-05-21T02:00:32.867Z,16.67
2023-05-21T02:03:27.206Z,14.90
2023-05-21T02:06:00.122Z,14.50
2023-05-21T02:08:53.485Z,15.53
2023-05-21T02:11:26.581Z,13.80
2023-05-21T02:14:10.932Z,13.60
2023-05-21T02:16:44.278Z,14.00
2023-05-21T02:19:43.739Z,14.03
2023-05-21T02:22:26.543Z,15.27
2023-05-21T02:25:17.223Z,13.97
2023-05-21T02:28:03.088Z,13.33
2023-05-21T02:30:55.924Z,15.00
2023-05-21T02:33:44.631Z,13.70
2023-05-21T02:36:26.069Z,15.40
2023-05-21T02:39:02.060Z,14.10
2023-05-21T02:41:50.293Z,14.60
2023-05-21T02:44:30.969Z,14.87
2023-05-21T02:47:47.180Z,13.53
2023-05-21T02:50:28.473Z,13.67
2023-05-21T02:53:08.340Z,13.03
2023-05-21T02:55:48.918Z,13.77
2023-05-21T02:58:35.973Z,13.63
2023-05-21T03:01:16.527Z,14.30
2023-05-21T03:04:09.529Z,12.77
2023-05-21T03:06:48.041Z,13.83
2023-05-21T03:09:45.497Z,14.83
2023-05-21T03:12:16.172Z,13.50
2023-05-21T03:15:12.972Z,14.73
2023-05-21T03:17:45.949Z,14.27
2023-05-21T03:20:51.277Z,15.90
2023-05-21T03:23:40.826Z,14.13
2023-05-21T03:26:32.162Z,13.97
2023-05-21T03:29:13.626Z,17.70
2023-05-21T03:31:57.094Z,13.23
2023-05-21T03:34:36.916Z,13.60
2023-05-21T03:37:20.494Z,13.80
2023-05-21T03:39:54.683Z,15.30
2023-05-21T03:42:37.853Z,14.30
2023-05-21T03:45:22.331Z,13.83
2023-05-21T03:48:20.114Z,13.27
2023-05-21T03:51:11.505Z,12.33
2023-05-21T03:54:29.101Z,13.20
2023-05-21T03:57:24.179Z,12.47
2023-05-21T04:00:16.585Z,12.83
2023-05-21T04:02:50.305Z,13.80
2023-05-21T04:05:39.376Z,12.83
2023-05-21T04:08:16.106Z,15.57
2023-05-21T04:11:08.488Z,14.90
2023-05-21T04:13:43.167Z,13.50
2023-05-21T04:16:41.000Z,12.13
2023-05-21T04:19:22.243Z,14.53
2023-05-21T04:21:53.169Z,13.40
2023-05-21T04:24:44.819Z,12.70
2023-05-21T04:27:33.137Z,14.63
2023-05-21T04:30:04.627Z,12.80
2023-05-21T04:33:10.602Z,15.40
2023-05-21T04:35:52.240Z,12.90
2023-05-21T04:38:39.145Z,13.43
2023-05-21T04:41:11.705Z,12.93
2023-05-21T04:43:59.119Z,12.40
2023-05-21T04:46:39.636Z,13.57
2023-05-21T04:49:15.721Z,12.07
2023-05-21T04:52:02.713Z,11.37
2023-05-21T04:55:00.658Z,13.60
2023-05-21T04:57:52.979Z,12.07
2023-05-21T05:00:42.582Z,12.20
2023-05-21T05:03:13.781Z,13.70
2023-05-21T05:05:58.429Z,12.37
2023-05-21T05:08:29.293Z,13.63
2023-05-21T05:11:03.536Z,12.20
2023-05-21T05:13:34.486Z,12.27
2023-05-21T05:16:25.680Z,13.60
2023-05-21T05:19:18.495Z,12.47
2023-05-21T05:21:58.084Z,14.20
2023-05-21T05:24:48.540Z,12.70
2023-05-21T05:27:41.568Z,11.90
2023-05-21T05:30:36.979Z,10.97
2023-05-21T05:33:45.469Z,12.23
2023-05-21T05:36:16.874Z,11.43
2023-05-21T05:39:05.044Z,10.90
2023-05-21T05:41:43.906Z,12.63
2023-05-21T05:44:29.861Z,13.17
2023-05-21T05:47:11.650Z,11.80
2023-05-21T05:50:13.750Z,10.67
2023-05-21T05:52:48.506Z,12.93
2023-05-21T05:55:20.475Z,11.20
2023-05-21T05:58:00.718Z,11.07
2023-05-21T06:00:51.449Z,10.57
2023-05-21T06:03:39.074Z,11.20
2023-05-21T06:06:25.107Z,10.60
2023-05-21T06:09:14.229Z,11.53
2023-05-21T06:11:57.111Z,11.73
2023-05-21T06:14:49.681Z,10.93
2023-05-21T06:17:27.150Z,10.73
2023-05-21T06:20:22.769Z,11.10
2023-05-21T06:23:03.436Z,10.30
2023-05-21T06:25:38.550Z,10.20
2023-05-21T06:28:18.135Z,10.83
2023-05-21T06:31:14.164Z,11.17
2023-05-21T06:33:51.751Z,12.27
2023-05-21T06:36:42.937Z,10.60
2023-05-21T06:39:36.343Z,12.47
2023-05-21T06:42:29.404Z,10.67
2023-05-21T06:45:22.935Z,9.37
2023-05-21T06:48:06.529Z,10.33
2023-05-21T06:50:54.985Z,12.77
2023-05-21T06:53:41.964Z,10.03
2023-05-21T06:56:37.591Z,10.07
2023-05-21T06:59:09.647Z,10.60
2023-05-21T07:01:53.574Z,9.80
2023-05-21T07:04:50.493Z,10.63
2023-05-21T07:07:28.317Z,9.53
2023-05-21T07:10:14.108Z,11.77
2023-05-21T07:13:07.377Z,9.53
2023-05-21T07:15:41.472Z,9.50
2023-05-21T07:18:24.412Z,10.33
2023-05-21T07:21:13.878Z,9.77
2023-05-21T07:23:57.399Z,9.33
2023-05-21T07:26:38.106Z,9.60
2023-05-21T07:29:28.825Z,9.57
2023-05-21T07:32:16.468Z,9.87
2023-05-21T07:34:47.717Z,9.70
2023-05-21T07:37:28.345Z,10.17
2023-05-21T07:40:06.684Z,9.33
2023-05-21T07:42:46.053Z,9.67
2023-05-21T07:45:23.438Z,9.80
2023-05-21T07:47:59.160Z,9.67
2023-05-21T07:50:31.721Z,9.27
2023-05-21T07:53:25.844Z,8.53
2023-05-21T07:56:16.376Z,9.20
2023-05-21T07:59:03.675Z,10.07
2023-05-21T08:01:46.743Z,8.97
2023-05-21T08:04:33.715Z,8.90
2023-05-21T08:07:32.655Z,11.33
2023-05-21T08:10:23.061Z,8.90
2023-05-21T08:12:57.747Z,9.73
2023-05-21T08:15:51.998Z,11.20
2023-05-21T08:18:27.666Z,9.47
2023-05-21T08:21:14.992Z,9.00
2023-05-21T08:23:57.638Z,11.07
2023-05-21T08:26:44.539Z,9.17
2023-05-21T08:29:35.782Z,9.57
2023-05-21T08:32:10.359Z,11.20
2023-05-21T08:35:06.609Z,7.90
2023-05-21T08:38:23.399Z,9.67
2023-05-21T08:41:33.432Z,8.97
2023-05-21T08:44:06.126Z,10.90
2023-05-21T08:46:52.782Z,8.47
2023-05-21T08:49:49.682Z,12.27
2023-05-21T08:52:52.124Z,8.63
2023-05-21T08:55:27.869Z,8.17
2023-05-21T08:58:23.980Z,8.57
2023-05-21T09:01:26.728Z,8.90
2023-05-21T09:04:21.399Z,8.60
2023-05-21T09:07:09.613Z,8.50
2023-05-21T09:10:28.710Z,8.93
2023-05-21T09:13:10.597Z,8.30
2023-05-21T09:16:11.631Z,9.00
2023-05-21T09:19:02.268Z,8.93
2023-05-21T09:21:47.427Z,10.40
2023-05-21T09:24:39.773Z,9.40
2023-05-21T09:27:42.676Z,9.97
2023-05-21T09:30:35.769Z,8.00
2023-05-21T09:33:19.876Z,8.73
2023-05-21T09:35:55.165Z,9.30
2023-05-21T09:39:02.257Z,8.90
2023-05-21T09:41:46.968Z,8.70
2023-05-21T09:44:51.088Z,8.33
2023-05-21T09:47:26.513Z,10.63
2023-05-21T09:50:12.578Z,8.13
2023-05-21T09:53:04.007Z,9.77
2023-05-21T09:55:53.015Z,9.80
2023-05-21T09:58:34.181Z,9.13
2023-05-21T10:01:33.753Z,8.20
2023-05-21T10:04:30.207Z,9.60
2023-05-21T10:07:11.037Z,9.00
2023-05-21T10:09:49.182Z,9.20
2023-05-21T10:12:32.792Z,9.00
2023-05-21T10:15:27.073Z,8.83
2023-05-21T10:18:08.706Z,8.60
2023-05-21T10:21:09.298Z,8.77
2023-05-21T10:24:05.002Z,9.03
2023-05-21T10:26:53.692Z,8.33
2023-05-21T10:29:37.547Z,8.83
2023-05-21T10:32:15.367Z,9.17
2023-05-21T10:35:01.837Z,10.50
2023-05-21T10:37:35.544Z,8.63
2023-05-21T10:40:17.867Z,8.53
2023-05-21T10:43:41.244Z,9.13
2023-05-21T10:47:04.549Z,9.63
2023-05-21T10:51:02.071Z,9.27
2023-05-21T10:54:13.989Z,8.80
2023-05-21T10:57:20.051Z,8.43
2023-05-21T11:00:08.441Z,9.37
2023-05-21T11:02:52.385Z,8.93
2023-05-21T11:05:44.176Z,8.90
2023-05-21T11:08:29.406Z,8.57
2023-05-21T11:11:18.054Z,8.60
2023-05-21T11:13:50.568Z,9.60
2023-05-21T11:16:40.617Z,7.70
2023-05-21T11:19:22.449Z,8.63
2023-05-21T11:22:04.629Z,8.13
2023-05-21T11:25:05.413Z,8.63
2023-05-21T11:27:53.511Z,7.50
2023-05-21T11:30:29.201Z,9.43
2023-05-21T11:33:38.872Z,10.30
2023-05-21T11:36:20.955Z,8.03
2023-05-21T11:39:25.457Z,8.63
2023-05-21T11:42:42.934Z,7.30
2023-05-21T11:45:22.237Z,8.33
2023-05-21T11:48:06.488Z,7.50
2023-05-21T11:50:54.955Z,7.53
2023-05-21T11:53:39.858Z,7.70
2023-05-21T11:56:26.105Z,6.80
2023-05-21T11:59:08.033Z,8.67
2023-05-21T12:02:11.791Z,7.10
2023-05-21T12:04:53.946Z,7.13
2023-05-21T12:07:27.788Z,7.60
2023-05-21T12:10:18.707Z,7.60
2023-05-21T12:13:05.685Z,8.47
2023-05-21T12:15:43.929Z,7.20
2023-05-21T12:18:26.839Z,7.70
2023-05-21T12:21:12.379Z,7.20
2023-05-21T12:24:00.491Z,7.43
2023-05-21T12:26:52.501Z,7.73
2023-05-21T12:29:34.935Z,7.40
2023-05-21T12:32:30.969Z,7.20
2023-05-21T12:35:31.704Z,7.37
2023-05-21T12:38:08.029Z,7.17
2023-05-21T12:40:59.977Z,7.40
2023-05-21T12:43:35.417Z,7.23
2023-05-21T12:46:29.863Z,6.57
2023-05-21T12:49:26.772Z,6.73
2023-05-21T12:52:06.223Z,6.57
2023-05-21T12:54:45.214Z,7.33
2023-05-21T12:57:44.052Z,6.77
2023-05-21T13:00:39.301Z,6.30
2023-05-21T13:03:17.765Z,7.03
2023-05-21T13:06:55.128Z,6.67
2023-05-21T13:09:30.082Z,5.67
2023-05-21T13:12:06.839Z,5.60
2023-05-21T13:14:47.545Z,5.83
2023-05-21T13:17:24.868Z,6.40
2023-05-21T13:20:30.937Z,7.73
2023-05-21T13:23:36.963Z,5.83
2023-05-21T13:26:34.532Z,7.20
2023-05-21T13:29:20.814Z,5.93
2023-05-21T13:32:25.515Z,7.37
2023-05-21T13:34:57.134Z,6.83
2023-05-21T13:37:53.777Z,6.57
2023-05-21T13:40:50.836Z,6.77
2023-05-21T13:43:45.821Z,7.10
2023-05-21T13:46:18.011Z,6.30
2023-05-21T13:49:09.030Z,5.90
2023-05-21T13:51:49.829Z,8.13
2023-05-21T13:54:30.914Z,6.03
2023-05-21T13:57:23.742Z,5.53
2023-05-21T14:00:06.459Z,5.20
2023-05-21T14:02:41.553Z,6.68
2023-05-21T14:05:22.292Z,5.18
2023-05-21T14:08:03.470Z,5.43
2023-05-21T14:10:37.751Z,5.68
2023-05-21T14:13:48.673Z,5.20
2023-05-21T14:16:38.940Z,5.28
2023-05-21T14:19:19.395Z,6.45
2023-05-21T14:22:23.700Z,5.18
2023-05-21T14:25:03.576Z,5.05
2023-05-21T14:27:55.206Z,5.53
2023-05-21T14:30:35.647Z,4.88
2023-05-21T14:33:23.215Z,5.53
2023-05-21T14:36:06.007Z,5.35
2023-05-21T14:39:15.548Z,5.03
2023-05-21T14:41:56.168Z,5.18
2023-05-21T14:44:26.366Z,5.40
2023-05-21T14:47:07.444Z,5.13
2023-05-21T14:49:53.633Z,6.25
2023-05-21T14:52:45.866Z,5.28
2023-05-21T14:55:40.183Z,6.13
2023-05-21T14:58:22.735Z,5.50
2023-05-21T15:01:06.393Z,6.50
2023-05-21T15:03:51.335Z,5.80
2023-05-21T15:06:51.952Z,5.63
2023-05-21T15:09:48.290Z,7.07
2023-05-21T15:12:38.226Z,5.78
2023-05-21T15:15:39.234Z,5.95
2023-05-21T15:18:29.795Z,5.40
2023-05-21T15:21:15.284Z,5.38
2023-05-21T15:23:52.817Z,5.20
2023-05-21T15:26:33.717Z,6.30
2023-05-21T15:29:14.203Z,5.93
2023-05-21T15:31:45.143Z,5.00
2023-05-21T15:34:21.928Z,6.80
2023-05-21T15:37:04.787Z,5.68
2023-05-21T15:39:37.503Z,5.85
2023-05-21T15:42:35.978Z,5.30
2023-05-21T15:45:30.845Z,5.40
2023-05-21T15:48:15.148Z,5.50
2023-05-21T15:51:09.285Z,7.38
2023-05-21T15:54:02.071Z,6.77
2023-05-21T15:56:52.881Z,7.03
2023-05-21T15:59:34.769Z,6.97
2023-05-21T16:02:40.174Z,6.30
2023-05-21T16:05:14.662Z,6.13
2023-05-21T16:08:11.293Z,9.30
2023-05-21T16:11:03.388Z,9.77
2023-05-21T16:13:47.380Z,7.00
2023-05-21T16:16:35.642Z,7.83
2023-05-21T16:19:09.492Z,6.40
2023-05-21T16:21:51.401Z,6.80
2023-05-21T16:24:32.024Z,6.50
2023-05-21T16:27:40.545Z,7.33
2023-05-21T16:30:24.537Z,6.50
2023-05-21T16:33:08.756Z,7.63
2023-05-21T16:36:17.492Z,7.83
2023-05-21T16:39:10.397Z,6.53
2023-05-21T16:41:46.882Z,7.67
2023-05-21T16:44:37.311Z,6.00
2023-05-21T16:47:38.769Z,6.10
2023-05-21T16:50:21.957Z,7.23
2023-05-21T16:53:09.105Z,8.03
2023-05-21T16:55:42.658Z,6.40
2023-05-21T16:58:27.743Z,6.47
2023-05-21T17:01:02.235Z,7.07
2023-05-21T17:03:43.335Z,7.20
2023-05-21T17:06:29.886Z,6.90
2023-05-21T17:09:12.702Z,7.37
2023-05-21T17:12:17.749Z,6.87
2023-05-21T17:15:23.200Z,6.77
2023-05-21T17:18:38.704Z,6.60
2023-05-21T17:21:18.922Z,7.80
2023-05-21T17:24:05.544Z,8.07
2023-05-21T17:26:47.024Z,7.07
2023-05-21T17:29:38.659Z,6.33
2023-05-21T17:32:21.269Z,7.43
2023-05-21T17:35:20.901Z,6.33
2023-05-21T17:38:14.745Z,6.63
2023-05-21T17:40:49.120Z,6.40
2023-05-21T17:43:28.665Z,6.77
2023-05-21T17:46:17.838Z,8.00
2023-05-21T17:49:10.399Z,8.17
2023-05-21T17:51:55.442Z,8.00
2023-05-21T17:54:41.760Z,7.70
2023-05-21T17:57:21.368Z,7.20
2023-05-21T17:59:53.566Z,7.20
2023-05-21T18:02:42.812Z,6.93
2023-05-21T18:05:33.749Z,6.87
2023-05-21T18:08:26.591Z,7.47
2023-05-21T18:11:13.029Z,7.67
2023-05-21T18:14:03.411Z,8.10
2023-05-21T18:16:56.044Z,7.53
2023-05-21T18:19:38.291Z,8.33
2023-05-21T18:22:08.770Z,7.63
2023-05-21T18:25:24.195Z,8.30
2023-05-21T18:28:13.652Z,7.67
2023-05-21T18:31:05.794Z,8.23
2023-05-21T18:33:49.456Z,9.90
2023-05-21T18:36:40.704Z,8.87
2023-05-21T18:39:41.081Z,8.50
2023-05-21T18:42:23.376Z,8.00
2023-05-21T18:45:27.946Z,8.90
2023-05-21T18:48:03.468Z,7.50
2023-05-21T18:50:37.570Z,8.73
2023-05-21T18:53:30.300Z,7.77
2023-05-21T18:56:05.717Z,9.63
2023-05-21T18:59:50.033Z,8.83
2023-05-21T19:02:50.657Z,8.67
2023-05-21T19:05:21.274Z,9.97
2023-05-21T19:08:02.592Z,8.60
2023-05-21T19:10:53.091Z,10.13
2023-05-21T19:13:52.113Z,8.07
2023-05-21T19:16:56.299Z,9.80
2023-05-21T19:19:38.340Z,9.37
2023-05-21T19:22:28.414Z,8.73
2023-05-21T19:25:09.348Z,9.07
2023-05-21T19:27:53.243Z,8.20
2023-05-21T19:30:24.122Z,9.17
2023-05-21T19:33:18.552Z,9.03
2023-05-21T19:36:06.485Z,9.07
2023-05-21T19:39:16.004Z,8.43
2023-05-21T19:41:57.501Z,8.83
2023-05-21T19:44:47.566Z,8.70
2023-05-21T19:47:35.763Z,9.27
2023-05-21T19:50:18.450Z,10.37
2023-05-21T19:52:54.203Z,7.93
2023-05-21T19:55:35.887Z,9.70
2023-05-21T19:58:20.926Z,10.53
2023-05-21T20:01:32.570Z,9.00
2023-05-21T20:04:18.304Z,8.83
2023-05-21T20:07:36.398Z,9.40
2023-05-21T20:10:25.587Z,9.23
2023-05-21T20:12:56.244Z,11.97
2023-05-21T20:15:33.677Z,9.93
2023-05-21T20:18:14.045Z,8.60
2023-05-21T20:20:49.022Z,9.90
2023-05-21T20:23:30.567Z,9.90
2023-05-21T20:26:05.595Z,12.27
2023-05-21T20:28:51.057Z,9.47
2023-05-21T20:31:36.299Z,12.53
2023-05-21T20:34:20.806Z,9.53
2023-05-21T20:37:01.295Z,9.60
2023-05-21T20:40:00.977Z,10.07
2023-05-21T20:42:45.355Z,9.23
2023-05-21T20:45:40.224Z,8.67
2023-05-21T20:48:25.106Z,10.87
2023-05-21T20:51:15.400Z,11.90
2023-05-21T20:53:58.144Z,9.57
2023-05-21T20:56:49.134Z,9.17
2023-05-21T20:59:42.282Z,9.50
2023-05-21T21:02:23.271Z,9.57
2023-05-21T21:05:16.783Z,9.23
2023-05-21T21:08:11.181Z,8.97
2023-05-21T21:11:24.184Z,9.03
2023-05-21T21:14:11.854Z,10.03
2023-05-21T21:16:52.208Z,9.60
2023-05-21T21:19:37.039Z,11.40
2023-05-21T21:22:18.758Z,11.63
2023-05-21T21:25:13.926Z,10.07
2023-05-21T21:27:59.326Z,11.37
2023-05-21T21:30:47.992Z,9.67
2023-05-21T21:33:34.524Z,9.50
2023-05-21T21:36:24.563Z,9.43
2023-05-21T21:39:13.442Z,10.47
2023-05-21T21:42:00.486Z,10.00
2023-05-21T21:44:45.799Z,9.27
2023-05-21T21:47:28.318Z,9.53
2023-05-21T21:50:13.523Z,10.07
2023-05-21T21:52:45.707Z,10.53
2023-05-21T21:55:36.235Z,10.73
2023-05-21T21:58:07.348Z,9.53
2023-05-21T22:00:47.588Z,14.10
2023-05-21T22:03:25.860Z,10.07
2023-05-21T22:06:12.863Z,10.27
2023-05-21T22:08:44.157Z,11.23
2023-05-21T22:11:25.376Z,10.20
2023-05-21T22:14:08.213Z,11.07
2023-05-21T22:17:08.034Z,9.90
2023-05-21T22:19:58.202Z,9.50
2023-05-21T22:22:47.520Z,10.17
2023-05-21T22:25:35.490Z,10.80
2023-05-21T22:28:20.904Z,11.37
2023-05-21T22:31:32.583Z,10.67
2023-05-21T22:34:07.079Z,11.57
2023-05-21T22:37:10.861Z,9.70
2023-05-21T22:39:56.813Z,10.07
2023-05-21T22:42:27.082Z,9.83
2023-05-21T22:45:01.218Z,10.50
2023-05-21T22:47:41.956Z,10.43
2023-05-21T22:50:23.554Z,9.83
2023-05-21T22:53:07.375Z,13.60
2023-05-21T22:55:48.375Z,10.97
2023-05-21T22:58:48.038Z,10.50
2023-05-21T23:01:38.692Z,11.03
2023-05-21T23:04:42.629Z,11.83
2023-05-21T23:07:18.688Z,10.70
2023-05-21T23:10:36.619Z,13.20
2023-05-21T23:13:25.864Z,9.10
2023-05-21T23:15:59.105Z,11.13
2023-05-21T23:18:41.208Z,10.30
2023-05-21T23:21:29.352Z,12.17
2023-05-21T23:24:06.451Z,10.80
2023-05-21T23:26:55.056Z,12.63
2023-05-21T23:29:46.009Z,10.93
2023-05-21T23:32:30.875Z,10.90
2023-05-21T23:35:27.056Z,11.17
2023-05-21T23:38:24.400Z,15.53
2023-05-21T23:41:24.944Z,11.93
2023-05-21T23:44:06.729Z,9.90
2023-05-21T23:46:53.515Z,10.73
2023-05-21T23:49:49.251Z,10.80
2023-05-21T23:52:45.739Z,11.70
2023-05-21T23:55:20.476Z,11.03
2023-05-21T23:57:55.661Z,10.77
